Time;durP1;ratioP1;P1;durP2;ratioP2;P2;SDS_P1;SDS_P2;PMS_P1;PMS_P2;Temp;Humidity;BMP_temperature;BMP_pressure;BME280_temperature;BME280_humidity;BME280_pressure;Samples;Min_cycle;Max_cycle;Signal;HPM_P1;HPM_P2
2021/11/02 00:01:40;;;;;;;28.98;21.95;;;;;;;14.85;61.66;101277.48;1647133;86;21014;-54
2021/11/02 00:04:07;;;;;;;28.90;21.30;;;;;;;14.89;61.55;101280.41;1659213;86;21553;-57
2021/11/02 00:06:36;;;;;;;24.70;21.10;;;;;;;14.93;61.47;101274.16;1646285;86;21109;-54
2021/11/02 00:09:05;;;;;;;26.48;21.37;;;;;;;14.96;61.36;101277.53;1659226;86;21092;-56
2021/11/02 00:11:34;;;;;;;28.67;22.17;;;;;;;15.00;61.30;101278.32;1651059;86;21026;-51
2021/11/02 00:14:08;;;;;;;24.98;20.40;;;;;;;15.02;61.22;101276.51;1657757;86;21062;-58
2021/11/02 00:16:36;;;;;;;24.10;20.62;;;;;;;15.05;61.15;101276.39;1627671;86;21017;-58
2021/11/02 00:19:05;;;;;;;24.90;20.88;;;;;;;15.07;61.07;101274.58;1632386;86;21014;-54
2021/11/02 00:21:38;;;;;;;24.05;19.80;;;;;;;15.09;60.99;101271.45;1659131;86;21111;-52
2021/11/02 00:24:14;;;;;;;24.52;19.67;;;;;;;15.12;60.87;101277.92;1646597;86;21538;-51
2021/11/02 00:26:40;;;;;;;24.15;18.82;;;;;;;15.14;60.82;101273.49;1647869;86;21537;-55
2021/11/02 00:29:07;;;;;;;24.00;18.62;;;;;;;15.14;60.74;101268.25;1647944;86;21097;-58
2021/11/02 00:31:35;;;;;;;20.80;17.75;;;;;;;15.15;60.79;101267.33;1652224;86;21097;-54
2021/11/02 00:34:03;;;;;;;22.00;18.02;;;;;;;15.17;60.79;101268.13;1645264;86;21550;-55
2021/11/02 00:36:31;;;;;;;21.48;18.23;;;;;;;15.17;60.75;101261.58;1664532;85;21102;-54
2021/11/02 00:38:59;;;;;;;22.40;18.98;;;;;;;15.17;60.56;101261.14;1663080;84;21056;-58
2021/11/02 00:41:26;;;;;;;22.42;19.10;;;;;;;15.16;60.55;101255.95;1716183;81;21013;-51
2021/11/02 00:43:55;;;;;;;22.50;19.23;;;;;;;15.15;60.48;101255.08;1758490;81;21050;-54
2021/11/02 00:48:50;;;;;;;22.65;18.98;;;;;;;15.14;60.45;101248.14;1653290;86;21062;-51
2021/11/02 00:51:18;;;;;;;21.52;18.07;;;;;;;15.12;60.38;101244.72;1670109;85;21549;-52
2021/11/02 00:53:45;;;;;;;22.07;18.15;;;;;;;15.10;60.37;101237.80;1668039;85;21026;-57
2021/11/02 00:56:12;;;;;;;22.98;18.15;;;;;;;15.05;60.38;101227.46;1658960;85;21007;-56
2021/11/02 00:58:39;;;;;;;24.25;19.10;;;;;;;15.01;60.42;101215.81;1669357;85;21133;-51
2021/11/02 01:01:06;;;;;;;21.17;17.20;;;;;;;14.98;60.53;101213.31;1667198;85;21109;-55
2021/11/02 01:03:34;;;;;;;24.52;18.10;;;;;;;14.94;60.58;101211.22;1669098;85;21031;-55
2021/11/02 01:06:00;;;;;;;20.90;17.42;;;;;;;14.92;60.64;101213.51;1665915;85;21063;-55
2021/11/02 01:08:27;;;;;;;21.20;18.25;;;;;;;14.90;60.71;101208.77;1674053;85;22266;-52
2021/11/02 01:10:55;;;;;;;23.77;18.92;;;;;;;14.89;60.72;101217.52;1667697;85;21062;-52
2021/11/02 01:13:22;;;;;;;23.90;19.75;;;;;;;14.90;60.79;101221.39;1667676;85;21019;-52
2021/11/02 01:15:48;;;;;;;25.57;20.15;;;;;;;14.93;60.82;101215.20;1663721;85;21034;-54
2021/11/02 01:18:17;;;;;;;28.17;21.15;;;;;;;14.98;60.87;101218.07;1666222;85;21057;-54
2021/11/02 01:20:43;;;;;;;27.90;22.05;;;;;;;15.02;60.89;101216.23;1645993;86;21003;-54
2021/11/02 01:23:11;;;;;;;28.77;22.62;;;;;;;15.06;60.89;101212.60;1670129;85;21050;-54
2021/11/02 01:25:39;;;;;;;32.80;23.32;;;;;;;15.08;60.79;101207.72;1645947;86;21055;-56
2021/11/02 01:28:05;;;;;;;28.07;22.75;;;;;;;15.10;60.75;101203.73;1667379;85;21017;-55
2021/11/02 01:30:35;;;;;;;27.93;21.50;;;;;;;15.12;60.72;101201.47;1643559;86;21563;-52
2021/11/02 01:33:02;;;;;;;28.15;21.75;;;;;;;15.13;60.71;101200.98;1667116;85;21027;-51
2021/11/02 01:35:29;;;;;;;30.65;22.07;;;;;;;15.15;60.65;101201.80;1667106;85;21510;-55
2021/11/02 01:37:59;;;;;;;33.02;22.48;;;;;;;15.17;60.63;101203.91;1643638;86;21030;-54
2021/11/02 01:40:25;;;;;;;27.07;21.65;;;;;;;15.17;60.56;101197.36;1669273;85;21086;-55
2021/11/02 01:42:52;;;;;;;30.80;23.57;;;;;;;15.18;60.50;101197.77;1643111;86;21055;-53
2021/11/02 01:45:24;;;;;;;28.75;22.98;;;;;;;15.19;60.51;101195.54;1639694;85;21606;-51
2021/11/02 01:47:50;;;;;;;29.35;23.27;;;;;;;15.19;60.54;101195.54;1667655;85;21094;-51
2021/11/02 01:50:18;;;;;;;33.20;23.65;;;;;;;15.19;60.55;101198.16;1622399;86;21066;-54
2021/11/02 01:52:46;;;;;;;33.95;24.23;;;;;;;15.20;60.54;101195.95;1661054;85;21050;-50
2021/11/02 01:55:15;;;;;;;30.90;23.67;;;;;;;15.21;60.55;101196.34;1669636;85;21555;-49
2021/11/02 01:57:44;;;;;;;32.05;23.57;;;;;;;15.21;60.54;101196.34;1735644;82;21038;-51
2021/11/02 02:00:15;;;;;;;31.15;23.52;;;;;;;15.21;60.52;101198.97;1733927;82;21027;-54
2021/11/02 02:03:36;;;;;;;29.30;22.52;;;;;;;15.20;60.42;101189.41;1719398;82;21507;-52
2021/11/02 02:06:10;;;;;;;28.35;22.37;;;;;;;15.18;60.38;101188.60;1735654;82;21023;-57
2021/11/02 02:09:02;;;;;;;29.67;22.55;;;;;;;15.13;60.40;101190.50;1701955;84;21559;-53
2021/11/02 02:11:45;;;;;;;32.17;23.02;;;;;;;15.10;60.45;101193.25;1699256;84;21046;-50
2021/11/02 02:14:50;;;;;;;31.65;23.18;;;;;;;15.07;60.55;101191.58;1662421;86;21034;-52
2021/11/02 02:17:21;;;;;;;30.43;22.77;;;;;;;15.07;60.61;101188.09;1661305;86;21042;-50
2021/11/02 02:20:01;;;;;;;32.03;23.53;;;;;;;15.07;60.62;101193.33;1661971;86;21030;-59
2021/11/02 02:23:01;;;;;;;30.37;22.95;;;;;;;15.08;60.74;101197.68;1661426;86;21392;-52
2021/11/02 02:25:56;;;;;;;33.67;21.65;;;;;;;15.09;60.76;101195.45;1651987;86;21074;-51
2021/11/02 02:28:32;;;;;;;29.65;22.20;;;;;;;15.11;60.71;101198.88;1658630;86;21166;-54
2021/11/02 02:31:05;;;;;;;30.02;21.42;;;;;;;15.12;60.60;101196.67;1662778;86;21044;-54
2021/11/02 02:33:42;;;;;;;27.98;21.42;;;;;;;15.08;60.48;101195.06;1662111;86;21070;-55
2021/11/02 02:36:11;;;;;;;30.20;22.50;;;;;;;15.04;60.55;101195.63;1598735;90;21125;-52
2021/11/02 02:38:44;;;;;;;29.87;23.05;;;;;;;15.02;60.58;101203.13;1566802;91;21055;-56
2021/11/02 02:41:10;;;;;;;30.57;22.10;;;;;;;14.98;60.62;101193.66;1566914;91;21079;-54
2021/11/02 02:43:43;;;;;;;29.00;22.67;;;;;;;14.98;60.78;101203.66;1550074;93;21063;-55
2021/11/02 02:46:10;;;;;;;30.50;21.20;;;;;;;15.00;60.81;101211.02;1578438;90;21076;-56
2021/11/02 02:48:37;;;;;;;28.15;21.40;;;;;;;15.01;60.84;101205.33;1598622;88;21089;-55
2021/11/02 02:51:04;;;;;;;30.55;21.87;;;;;;;15.03;60.88;101210.06;1614917;87;21084;-52
2021/11/02 02:53:31;;;;;;;28.73;21.35;;;;;;;15.05;60.89;101204.32;1618904;87;21098;-52
2021/11/02 02:56:03;;;;;;;32.88;22.30;;;;;;;15.06;60.94;101200.36;1623281;87;21058;-55
2021/11/02 02:58:35;;;;;;;27.50;21.27;;;;;;;15.10;60.87;101210.28;1590572;87;21093;-51
2021/11/02 03:01:04;;;;;;;27.58;21.33;;;;;;;15.10;60.80;101207.66;1614836;87;21070;-56
2021/11/02 03:03:32;;;;;;;28.77;22.02;;;;;;;15.11;60.82;101205.42;1595742;90;21008;-54
2021/11/02 03:06:02;;;;;;;30.60;22.55;;;;;;;15.13;60.79;101207.54;1621604;88;21108;-54
2021/11/02 03:08:30;;;;;;;30.72;22.55;;;;;;;15.14;60.75;101200.96;1629670;88;21097;-54
2021/11/02 03:10:59;;;;;;;29.32;23.40;;;;;;;15.15;60.65;101200.04;1630030;88;21580;-56
2021/11/02 03:13:25;;;;;;;28.47;23.18;;;;;;;15.16;60.56;101199.15;1630388;88;21568;-54
2021/11/02 03:16:00;;;;;;;32.55;22.93;;;;;;;15.17;60.55;101203.91;1630566;88;21479;-52
2021/11/02 03:44:09;;;;;;;36.98;26.00;;;;;;;15.11;60.70;101173.97;1632036;86;21005;-54
2021/11/02 03:54:54;;;;;;;31.40;22.77;;;;;;;15.03;60.60;101179.92;1563207;92;21138;-54
2021/11/02 05:49:26;;;;;;;19.02;15.70;;;;;;;14.90;60.83;101190.43;1688830;85;21083;-56
2021/11/02 05:57:47;;;;;;;21.05;16.85;;;;;;;15.00;60.95;101205.77;1682943;85;21033;-50
2021/11/02 06:00:19;;;;;;;18.65;15.13;;;;;;;15.04;60.87;101200.00;1677492;85;21050;-55
2021/11/02 06:08:31;;;;;;;23.60;18.73;;;;;;;15.09;60.35;101201.55;1677092;85;20975;-54
2021/11/02 06:23:26;;;;;;;21.15;17.70;;;;;;;15.11;60.48;101208.91;1652261;87;21022;-51
2021/11/02 06:28:00;;;;;;;22.73;18.25;;;;;;;15.21;60.41;101217.31;1652387;87;21088;-55
2021/11/02 06:30:30;;;;;;;24.87;18.48;;;;;;;15.24;60.22;101217.23;1691093;84;21063;-51
2021/11/02 06:54:16;;;;;;;20.72;17.17;;;;;;;15.43;59.90;101218.36;1514382;93;21054;-55
2021/11/02 07:20:15;;;;;;;17.87;14.03;;;;;;;15.43;59.55;101252.45;1519462;94;21069;-53
2021/11/02 07:22:48;;;;;;;16.32;14.53;;;;;;;15.43;59.52;101249.83;1516444;94;21057;-53
2021/11/02 08:49:06;;;;;;;13.88;12.23;;;;;;;15.96;58.94;101158.27;1660605;85;21129;-51
2021/11/02 08:51:35;;;;;;;13.18;11.25;;;;;;;16.02;58.88;101149.30;1665414;85;21111;-53
2021/11/02 08:54:01;;;;;;;14.13;12.53;;;;;;;16.06;58.78;101142.56;1666105;85;21093;-53
2021/11/02 08:56:28;;;;;;;13.05;11.65;;;;;;;16.11;58.83;101138.01;1662544;85;21023;-54
2021/11/02 08:58:55;;;;;;;14.00;11.85;;;;;;;16.17;58.73;101143.02;1662101;85;21091;-53
2021/11/02 09:01:23;;;;;;;13.10;11.80;;;;;;;16.24;58.56;101141.86;1663968;85;21094;-53
2021/11/02 09:04:02;;;;;;;12.05;10.38;;;;;;;16.28;58.39;101136.88;1664074;85;21102;-53
2021/11/02 09:06:30;;;;;;;13.20;11.80;;;;;;;16.31;58.14;101138.53;1654757;85;21124;-50
2021/11/02 09:08:58;;;;;;;15.25;12.23;;;;;;;16.37;58.16;101134.80;1669449;83;21238;-52
2021/11/02 09:11:27;;;;;;;14.90;12.20;;;;;;;16.43;58.03;101129.30;1735913;82;21000;-53
2021/11/02 09:13:55;;;;;;;12.47;11.20;;;;;;;16.51;57.95;101128.58;1723977;82;20957;-52
2021/11/02 09:16:25;;;;;;;13.25;11.55;;;;;;;16.56;57.57;101126.63;1720544;82;21031;-51
2021/11/02 09:18:52;;;;;;;14.90;11.50;;;;;;;16.61;57.56;101122.06;1726444;82;20991;-51
2021/11/02 09:21:19;;;;;;;12.37;11.10;;;;;;;16.64;57.58;101114.90;1729154;82;21074;-56
2021/11/02 09:23:48;;;;;;;12.88;11.28;;;;;;;16.69;57.48;101115.55;1727754;82;21066;-51
2021/11/02 09:26:17;;;;;;;12.10;10.95;;;;;;;16.74;57.21;101107.48;1732097;82;20956;-52
2021/11/02 09:28:44;;;;;;;12.13;10.85;;;;;;;16.77;57.14;101102.11;1736405;82;21466;-54
2021/11/02 09:31:15;;;;;;;12.75;11.25;;;;;;;16.78;56.98;101105.98;1732855;82;20991;-53
2021/11/02 09:33:41;;;;;;;11.93;10.70;;;;;;;16.80;57.12;101094.95;1717321;82;21019;-51
2021/11/02 09:36:08;;;;;;;12.10;10.80;;;;;;;16.84;56.93;101095.66;1703586;84;20996;-51
2021/11/02 09:38:48;;;;;;;12.25;11.05;;;;;;;16.86;56.83;101094.69;1670471;85;21023;-54
2021/11/02 09:41:36;;;;;;;11.60;10.40;;;;;;;16.90;56.95;101095.41;1734974;82;21034;-52
2021/11/02 09:44:39;;;;;;;12.47;11.00;;;;;;;16.94;56.81;101096.98;1729029;82;21024;-53
2021/11/02 09:47:26;;;;;;;12.95;11.48;;;;;;;16.99;56.76;101093.71;1661720;85;21597;-53
2021/11/02 09:50:07;;;;;;;11.95;10.75;;;;;;;17.03;56.45;101099.23;1662753;85;21146;-55
2021/11/02 09:53:29;;;;;;;12.10;10.60;;;;;;;17.03;56.46;101092.20;1660777;86;21026;-53
2021/11/02 09:56:14;;;;;;;;;;;;;;;17.06;56.55;101093.38;1616040;89;21025;-53
2021/11/02 09:59:23;;;;;;;13.90;11.93;;;;;;;17.09;56.62;101091.08;1631735;86;20160;-50
2021/11/02 10:02:07;;;;;;;12.30;11.10;;;;;;;17.13;56.49;101085.22;1606314;89;21031;-53
2021/11/02 10:04:50;;;;;;;12.65;11.35;;;;;;;17.17;56.32;101078.91;1576628;90;21138;-50
2021/11/02 10:07:37;;;;;;;12.10;10.90;;;;;;;17.20;56.17;101078.34;1633524;86;21077;-52
2021/11/02 10:10:15;;;;;;;10.78;9.73;;;;;;;17.22;56.11;101065.11;1640506;87;21573;-54
2021/11/02 10:13:02;;;;;;;11.83;10.63;;;;;;;17.24;56.14;101052.29;1585621;90;21099;-50
2021/11/02 10:15:50;;;;;;;12.30;10.18;;;;;;;17.28;55.98;101055.17;1589693;90;21058;-52
2021/11/02 10:18:46;;;;;;;11.85;10.72;;;;;;;17.31;55.93;101058.97;1558701;92;21056;-52
2021/11/02 10:21:52;;;;;;;13.68;10.90;;;;;;;17.34;56.03;101060.16;1532641;93;21076;-52
2021/11/02 10:25:13;;;;;;;12.60;10.68;;;;;;;17.37;56.16;101060.01;1537482;92;22049;-53
2021/11/02 10:28:13;;;;;;;11.60;10.18;;;;;;;17.40;56.05;101052.00;1588616;90;21116;-52
2021/11/02 10:31:01;;;;;;;11.45;10.35;;;;;;;17.47;56.02;101047.31;1463110;97;21148;-51
2021/11/02 10:33:35;;;;;;;12.28;10.98;;;;;;;17.51;55.98;101045.83;1509551;93;21574;-53
2021/11/02 10:36:34;;;;;;;12.40;10.65;;;;;;;17.57;56.09;101043.37;1515735;92;21094;-52
2021/11/02 10:39:19;;;;;;;11.88;10.70;;;;;;;17.60;56.01;101042.77;1529913;93;21097;-51
2021/11/02 10:41:59;;;;;;;13.75;11.78;;;;;;;17.64;55.83;101039.06;1528263;93;21557;-54
2021/11/02 10:44:45;;;;;;;12.88;11.22;;;;;;;17.65;55.81;101031.58;1531101;92;21092;-54
2021/11/02 10:47:25;;;;;;;11.70;10.50;;;;;;;17.67;55.98;101024.46;1521542;93;21195;-51
2021/11/02 10:50:05;;;;;;;12.03;10.82;;;;;;;17.68;56.01;101018.26;1515045;93;21082;-52
2021/11/02 10:52:32;;;;;;;13.38;11.43;;;;;;;17.71;56.17;101006.73;1479467;95;21192;-53
2021/11/02 10:55:19;;;;;;;12.73;10.68;;;;;;;17.75;56.16;101002.58;1475035;96;21061;-54
2021/11/02 10:58:06;;;;;;;12.65;11.05;;;;;;;17.79;55.93;100984.40;1487113;95;21691;-53
2021/11/02 11:00:34;;;;;;;16.90;11.73;;;;;;;17.84;55.73;100982.41;1493604;94;21180;-55
2021/11/02 11:03:07;;;;;;;12.37;11.12;;;;;;;17.89;55.42;100983.03;1483731;95;21142;-53
2021/11/02 11:05:34;;;;;;;13.10;11.12;;;;;;;17.94;55.32;100989.85;1494374;94;21194;-52
2021/11/02 11:08:04;;;;;;;12.45;11.18;;;;;;;17.98;55.33;100988.77;1535174;91;21130;-52
2021/11/02 11:10:33;;;;;;;12.55;11.00;;;;;;;18.02;55.33;100981.98;1572008;91;21084;-55
2021/11/02 11:13:01;;;;;;;11.63;10.50;;;;;;;18.09;55.18;100979.91;1625048;88;21111;-54
2021/11/02 11:15:30;;;;;;;12.23;10.70;;;;;;;18.15;54.86;100978.28;1613618;88;21108;-53
2021/11/02 11:18:07;;;;;;;11.90;10.63;;;;;;;18.19;54.90;100979.84;1622488;88;21079;-50
2021/11/02 11:20:39;;;;;;;12.58;10.80;;;;;;;18.24;54.83;100980.44;1589252;89;21565;-51
2021/11/02 11:23:08;;;;;;;12.40;10.73;;;;;;;18.28;54.72;100976.76;1584113;90;21494;-54
2021/11/02 11:26:05;;;;;;;14.10;11.25;;;;;;;18.32;54.71;100979.63;1595412;90;21060;-50
2021/11/02 11:28:38;;;;;;;11.78;10.10;;;;;;;18.36;54.53;100978.55;1587534;90;21535;-52
2021/11/02 11:31:05;;;;;;;11.53;10.32;;;;;;;18.39;54.57;100984.95;1594008;90;21064;-53
2021/11/02 11:33:33;;;;;;;11.28;10.15;;;;;;;18.41;54.46;100996.27;1553134;92;21024;-52
2021/11/02 11:36:06;;;;;;;10.65;9.55;;;;;;;18.39;54.57;100988.91;1639524;87;21043;-53
2021/11/02 11:38:42;;;;;;;11.18;9.93;;;;;;;18.38;54.50;100984.59;1576659;90;21547;-52
2021/11/02 11:41:11;;;;;;;12.18;10.38;;;;;;;18.34;54.54;100985.67;1578279;90;21097;-50
2021/11/02 11:43:41;;;;;;;12.60;11.03;;;;;;;18.31;54.65;100985.81;1578414;91;21089;-53
2021/11/02 11:46:08;;;;;;;15.23;13.60;;;;;;;18.25;54.76;100987.43;1573287;90;21507;-52
2021/11/02 11:48:42;;;;;;;14.07;11.93;;;;;;;18.19;54.99;100982.47;1578036;91;21087;-52
2021/11/02 11:51:21;;;;;;;12.45;11.15;;;;;;;18.12;55.34;100976.64;1578712;89;21114;-51
2021/11/02 11:53:49;;;;;;;13.55;12.15;;;;;;;18.08;55.70;100974.23;1602726;89;21059;-55
2021/11/02 11:56:17;;;;;;;13.45;12.03;;;;;;;18.07;55.91;100975.17;1599006;89;21566;-53
2021/11/02 11:58:48;;;;;;;12.53;11.10;;;;;;;18.06;56.03;100974.77;1643806;86;21111;-54
2021/11/02 12:01:49;;;;;;;13.33;11.93;;;;;;;18.07;56.18;100975.17;1622485;87;21527;-50
2021/11/02 12:04:26;;;;;;;13.15;11.70;;;;;;;18.08;56.19;100959.75;1621024;87;21062;-52
2021/11/02 12:07:24;;;;;;;14.23;12.78;;;;;;;18.08;56.29;100958.43;1628096;87;21653;-52
2021/11/02 12:09:52;;;;;;;13.95;12.18;;;;;;;18.07;56.50;100963.33;1566397;90;21631;-52
2021/11/02 12:12:22;;;;;;;15.08;12.85;;;;;;;18.07;56.73;100958.06;1564501;90;21559;-52
2021/11/02 12:14:55;;;;;;;15.08;13.58;;;;;;;18.08;56.77;100950.53;1577483;90;21062;-53
2021/11/02 12:17:27;;;;;;;14.95;13.00;;;;;;;18.09;56.77;100946.98;1580977;90;21067;-53
2021/11/02 12:20:09;;;;;;;13.83;12.43;;;;;;;18.10;56.89;100952.63;1575688;90;21760;-50
2021/11/02 12:22:53;;;;;;;15.45;13.15;;;;;;;18.12;56.74;100949.45;1565289;90;21048;-53
2021/11/02 12:25:26;;;;;;;16.70;13.65;;;;;;;18.13;56.77;100951.17;1586641;90;21068;-51
2021/11/02 12:27:55;;;;;;;15.98;13.28;;;;;;;18.10;57.00;100948.67;1561087;90;21140;-55
2021/11/02 12:30:23;;;;;;;16.30;13.05;;;;;;;18.11;57.26;100940.72;1581496;90;21040;-53
2021/11/02 12:32:56;;;;;;;15.40;13.32;;;;;;;18.16;57.33;100941.33;1575604;90;21500;-52
2021/11/02 12:35:38;;;;;;;13.60;12.20;;;;;;;18.22;57.40;100941.02;1576427;89;21065;-50
2021/11/02 12:38:06;;;;;;;15.38;12.65;;;;;;;18.30;57.17;100941.97;1581044;89;21112;-53
2021/11/02 12:40:39;;;;;;;14.15;12.63;;;;;;;18.36;56.94;100935.91;1588542;89;21151;-52
2021/11/02 12:43:31;;;;;;;14.78;12.75;;;;;;;18.39;56.79;100933.13;1590970;89;21112;-57
2021/11/02 12:46:02;;;;;;;14.30;12.75;;;;;;;18.43;56.83;100937.77;1608465;87;21059;-50
2021/11/02 12:48:31;;;;;;;13.85;12.45;;;;;;;18.50;56.73;100929.98;1623027;87;21129;-49
2021/11/02 12:50:57;;;;;;;13.88;12.47;;;;;;;18.53;56.65;100933.75;1635974;87;21137;-51
2021/11/02 12:53:27;;;;;;;13.85;11.70;;;;;;;18.55;56.65;100925.30;1642545;87;21109;-50
2021/11/02 12:55:55;;;;;;;14.55;12.43;;;;;;;18.57;56.69;100921.66;1590431;89;21077;-55
2021/11/02 12:58:21;;;;;;;16.93;12.80;;;;;;;18.61;56.51;100917.94;1672352;84;21019;-50
2021/11/02 13:01:02;;;;;;;14.58;12.82;;;;;;;18.62;56.59;100919.66;1699737;83;21006;-53
2021/11/02 13:03:34;;;;;;;14.83;11.93;;;;;;;18.63;56.61;100919.16;1697791;83;21097;-53
2021/11/02 13:06:09;;;;;;;14.33;12.75;;;;;;;18.63;56.63;100927.07;1684460;85;21073;-51
2021/11/02 13:08:49;;;;;;;14.65;12.75;;;;;;;18.63;56.48;100936.30;1621772;88;21171;-54
2021/11/02 13:11:21;;;;;;;13.93;12.47;;;;;;;18.60;56.61;100933.84;1619391;88;21042;-56
2021/11/02 13:13:59;;;;;;;15.53;13.05;;;;;;;18.58;56.81;100933.06;1579716;90;21634;-53
2021/11/02 13:16:29;;;;;;;13.88;12.47;;;;;;;18.56;56.75;100930.52;1580670;90;21115;-55
2021/11/02 13:18:55;;;;;;;15.88;13.80;;;;;;;18.54;56.76;100927.11;1622705;87;21042;-52
2021/11/02 13:21:31;;;;;;;15.93;12.63;;;;;;;18.52;56.86;100930.30;1601043;88;21097;-54
2021/11/02 13:24:17;;;;;;;15.55;13.28;;;;;;;18.49;57.05;100924.30;1613914;88;21165;-50
2021/11/02 13:26:49;;;;;;;13.50;12.10;;;;;;;18.47;57.14;100924.85;1620585;88;21918;-54
2021/11/02 13:29:25;;;;;;;13.95;12.50;;;;;;;18.45;57.14;100922.30;1623906;88;21065;-50
2021/11/02 13:31:53;;;;;;;15.43;13.45;;;;;;;18.42;57.22;100929.48;1536742;92;21141;-54
2021/11/02 13:34:37;;;;;;;14.65;13.15;;;;;;;18.38;57.41;100929.27;1545318;92;21137;-56
2021/11/02 13:37:15;;;;;;;20.02;13.40;;;;;;;18.34;57.51;100931.17;1515166;94;21527;-53
2021/11/02 13:39:59;;;;;;;15.10;12.37;;;;;;;18.30;57.69;100919.58;1501154;94;21171;-59
2021/11/02 13:42:51;;;;;;;14.93;12.93;;;;;;;18.27;57.84;100928.94;1503160;94;21124;-52
2021/11/02 13:45:22;;;;;;;15.18;13.58;;;;;;;18.24;57.95;100925.98;1497026;95;21181;-53
2021/11/02 13:47:51;;;;;;;14.45;13.00;;;;;;;18.21;58.10;100930.56;1503584;94;21080;-54
2021/11/02 13:50:17;;;;;;;15.83;12.68;;;;;;;18.18;58.27;100934.66;1490316;95;21056;-52
2021/11/02 13:52:46;;;;;;;17.77;12.82;;;;;;;18.14;58.50;100934.42;1474937;96;21083;-51
2021/11/02 13:55:12;;;;;;;13.60;12.20;;;;;;;18.14;58.75;100929.16;1523882;93;21076;-53
2021/11/02 13:57:39;;;;;;;14.20;12.30;;;;;;;18.14;58.88;100934.42;1497841;92;21049;-53
2021/11/02 14:00:07;;;;;;;13.32;11.85;;;;;;;18.14;58.87;100931.79;1617299;88;21069;-54
2021/11/02 14:02:37;;;;;;;15.50;11.83;;;;;;;18.15;58.89;100932.19;1573794;90;21103;-54
2021/11/02 14:05:04;;;;;;;13.93;11.78;;;;;;;18.16;58.87;100933.88;1572480;91;21099;-54
2021/11/02 14:07:32;;;;;;;14.63;11.73;;;;;;;18.17;58.88;100930.33;1547581;91;21120;-54
2021/11/02 14:10:07;;;;;;;15.78;11.70;;;;;;;18.18;58.92;100930.70;1569006;91;21097;-51
2021/11/02 14:12:54;;;;;;;14.53;11.30;;;;;;;18.18;58.94;100930.70;1568654;91;21161;-51
2021/11/02 14:15:29;;;;;;;13.40;11.78;;;;;;;18.19;59.01;100928.02;1568179;91;21082;-52
2021/11/02 14:20:49;;;;;;;12.25;10.38;;;;;;;18.21;59.12;100926.62;1528618;93;21153;-53
2021/11/02 14:23:36;;;;;;;12.15;10.68;;;;;;;18.21;59.14;100923.52;1511955;93;21148;-53
2021/11/02 14:26:37;;;;;;;12.23;10.93;;;;;;;18.22;59.10;100919.95;1511905;93;21042;-51
2021/11/02 14:29:06;;;;;;;11.00;9.90;;;;;;;18.21;59.19;100914.77;1538404;92;21617;-50
2021/11/02 14:31:43;;;;;;;11.78;10.40;;;;;;;18.22;59.16;100904.14;1557385;92;21613;-52
2021/11/02 14:34:46;;;;;;;12.28;10.50;;;;;;;18.22;59.16;100911.19;1531351;92;21108;-52
2021/11/02 14:37:18;;;;;;;11.40;9.28;;;;;;;18.21;59.28;100897.64;1518328;94;21072;-53
2021/11/02 14:40:00;;;;;;;12.55;9.25;;;;;;;18.21;59.25;100895.88;1508451;95;21983;-54
2021/11/02 14:42:47;;;;;;;11.63;9.45;;;;;;;18.22;59.27;100895.38;1500804;93;21087;-53
2021/11/02 14:45:19;;;;;;;8.80;7.90;;;;;;;18.21;59.30;100897.64;1531664;93;21121;-53
2021/11/02 14:47:47;;;;;;;9.55;7.40;;;;;;;18.21;59.31;100893.69;1416468;100;21137;-53
2021/11/02 14:50:36;;;;;;;8.75;7.78;;;;;;;18.20;59.31;100889.34;1410141;100;21133;-53
2021/11/02 14:53:16;;;;;;;8.60;7.30;;;;;;;18.19;59.32;100892.92;1407634;100;21755;-50
2021/11/02 14:56:06;;;;;;;10.08;7.28;;;;;;;18.19;59.38;100896.41;1416220;100;21154;-52
2021/11/02 14:58:48;;;;;;;11.08;7.47;;;;;;;18.19;59.44;100891.15;1412482;100;21153;-51
2021/11/02 15:01:42;;;;;;;8.08;7.35;;;;;;;18.17;59.38;100886.88;1414609;100;21080;-51
2021/11/02 15:04:15;;;;;;;8.68;6.95;;;;;;;18.15;59.40;100884.79;1406950;100;21606;-52
2021/11/02 15:06:57;;;;;;;9.03;8.08;;;;;;;18.13;59.52;100893.23;1407795;100;21644;-52
2021/11/02 15:09:26;;;;;;;;;;;;;;;18.14;59.61;100888.34;1414821;100;21134;-51
2021/11/02 15:11:53;;;;;;;9.23;7.65;;;;;;;18.14;59.67;100887.02;1409757;100;20154;-52
2021/11/02 15:14:27;;;;;;;8.13;7.15;;;;;;;18.11;59.80;100889.37;1407178;100;21134;-57
2021/11/02 15:16:59;;;;;;;8.90;8.00;;;;;;;18.15;59.68;100879.52;1414843;100;21164;-54
2021/11/02 15:19:29;;;;;;;9.53;7.58;;;;;;;18.18;59.69;100878.03;1415331;101;21151;-53
2021/11/02 15:22:00;;;;;;;7.90;7.10;;;;;;;18.18;59.65;100876.26;1416221;101;21123;-51
2021/11/02 15:24:34;;;;;;;7.87;6.97;;;;;;;18.19;59.59;100877.98;1417478;100;21651;-52
2021/11/02 15:27:22;;;;;;;9.05;7.00;;;;;;;18.22;59.53;100874.31;1429712;98;21119;-52
2021/11/02 15:29:52;;;;;;;11.10;7.25;;;;;;;18.24;59.47;100872.45;1439046;98;21619;-51
2021/11/02 15:32:21;;;;;;;11.45;6.85;;;;;;;18.24;59.45;100877.72;1435470;99;21120;-53
2021/11/02 15:35:01;;;;;;;11.33;7.28;;;;;;;18.23;59.48;100876.89;1435249;99;21107;-51
2021/11/02 15:37:41;;;;;;;8.18;7.37;;;;;;;18.24;59.57;100880.35;1445210;96;21107;-53
2021/11/02 15:40:21;;;;;;;7.58;6.80;;;;;;;18.24;59.74;100880.35;1496430;95;21142;-54
2021/11/02 15:42:51;;;;;;;9.13;7.28;;;;;;;18.25;60.02;100880.75;1444636;97;21087;-55
2021/11/02 15:48:11;;;;;;;10.78;7.00;;;;;;;18.28;60.78;100884.56;1592679;89;21081;-53
2021/11/02 15:50:47;;;;;;;8.70;6.67;;;;;;;18.30;60.90;100884.02;1593065;89;21096;-55
2021/11/02 15:53:16;;;;;;;7.97;6.58;;;;;;;18.31;60.93;100880.44;1541484;91;21199;-53
2021/11/02 15:55:43;;;;;;;13.62;7.35;;;;;;;18.30;61.10;100876.11;1543699;93;21121;-53
2021/11/02 15:58:12;;;;;;;14.33;7.28;;;;;;;18.29;61.05;100875.71;1543750;91;21073;-53
2021/11/02 16:00:41;;;;;;;9.33;7.17;;;;;;;18.30;61.21;100877.43;1543465;93;21133;-53
2021/11/02 16:03:11;;;;;;;7.55;6.83;;;;;;;18.29;61.20;100877.03;1543691;93;21105;-54
2021/11/02 16:05:42;;;;;;;10.85;7.87;;;;;;;18.30;61.21;100880.06;1593285;89;21037;-51
2021/11/02 16:08:21;;;;;;;9.83;7.22;;;;;;;18.31;61.20;100881.75;1632505;86;21557;-53
2021/11/02 16:10:54;;;;;;;10.20;7.42;;;;;;;18.30;61.08;100880.89;1631439;86;21104;-55
2021/11/02 16:13:27;;;;;;;7.97;7.15;;;;;;;18.31;60.98;100881.75;1630571;86;21022;-50
2021/11/02 16:15:54;;;;;;;10.38;8.18;;;;;;;18.29;60.94;100880.98;1632188;88;21018;-52
2021/11/02 16:18:26;;;;;;;9.90;7.75;;;;;;;18.29;60.98;100878.34;1632541;86;21094;-51
2021/11/02 16:20:56;;;;;;;8.68;7.40;;;;;;;18.29;60.94;100880.98;1632283;86;21571;-53
2021/11/02 16:23:26;;;;;;;8.33;7.12;;;;;;;18.30;60.95;100874.80;1632419;86;21037;-55
2021/11/02 16:25:59;;;;;;;9.00;8.10;;;;;;;18.31;60.94;100864.63;1632338;86;21017;-54
2021/11/02 16:28:31;;;;;;;10.13;8.25;;;;;;;18.32;60.91;100872.94;1632531;86;21073;-51
2021/11/02 16:31:06;;;;;;;8.45;7.55;;;;;;;18.33;60.92;100871.98;1632186;86;21118;-54
2021/11/02 16:33:43;;;;;;;12.95;8.80;;;;;;;18.34;60.95;100872.39;1632440;86;21033;-54
2021/11/02 16:36:24;;;;;;;10.05;8.03;;;;;;;18.35;60.91;100864.86;1632248;86;21502;-52
2021/11/02 16:38:57;;;;;;;9.60;8.10;;;;;;;18.35;60.90;100863.08;1586932;89;21047;-54
2021/11/02 16:41:36;;;;;;;11.40;8.68;;;;;;;18.37;60.81;100864.31;1631030;88;21028;-55
2021/11/02 16:44:12;;;;;;;8.53;7.70;;;;;;;18.38;60.85;100862.91;1637458;88;21067;-55
2021/11/02 16:46:43;;;;;;;11.40;8.98;;;;;;;18.39;60.88;100863.77;1637007;87;21061;-55
2021/11/02 16:49:16;;;;;;;;;;;;;;;18.40;60.81;100868.12;1639738;87;21073;-51
2021/11/02 16:51:57;;;;;;;12.98;8.93;;;;;;;18.40;60.77;100865.48;1629178;88;20104;-55
2021/11/02 16:54:29;;;;;;;8.30;7.50;;;;;;;18.39;60.79;100866.40;1655808;86;21070;-52